Stockton, CA

10:02 AM PDT on October 23, 2014 (GMT -0700)
Livermore Municipal | Change Station
CLOSE
Current Station
Airport
Location: Livermore,
Elevation: 397 ft
Nearby Weather Stations

Elev 397 ft 37.69 °N, 121.81 °W | Updated 9 minutes ago

Partly Cloudy
Partly Cloudy
62 °F
Feels Like 62 °F
N
0
Wind Variable Wind from North

Today
High -- | Low -- °F
--% Chance of Precip.
Yesterday
High -- | Low -- °F
Precip. -- in
7:21 AM 6:16 PM
Waning Crescent, 0% visible
Pressure 30.08 in
Visibility 10.0 miles
Clouds Clear
Dew Point 53 °F
Humidity 72%
Rainfall 0.00 in
Snow Depth Not available.
UV 2 out of 12
Pollen 3.30 out of 12
Ozone Good
PM2.5 Moderate
Flu Activity Sporadic
METAR KLVK 231653Z 00000KT 10SM CLR 17/12 A3008 RMK AO2 SLP184 T01670117

More Conditions Fewer Conditions

Pressure 30.08 in
Visibility 10.0 miles
Clouds Clear
Dew Point 53 °F
Humidity 72%
Rainfall 0.00 in
Snow Depth Not available.
UV 2 out of 12
Pollen 3.30 out of 12
Ozone Good
PM2.5 Moderate
Flu Activity Sporadic
METAR KLVK 231653Z 00000KT 10SM CLR 17/12 A3008 RMK AO2 SLP184 T01670117

More Conditions Fewer Conditions

10-Day Weather Forecast

Almanac

Astronomy

Oct. 23, 2014 Rise Set
Actual Time 7:21 AM PDT 6:16 PM PDT
Civil Twilight 6:54 AM PDT 6:43 PM PDT
Nautical Twilight 6:23 AM PDT 7:13 PM PDT
Astronomical Twilight 5:53 AM PDT 7:44 PM PDT
Moon 7:06 AM PDT 6:21 PM PDT
Length of Visible Light 11h 48m
Length of Day
10h 55m
Tomorrow will be 2m 16s shorter.
Waning Crescent, 0% of the Moon is Illuminated
Today
Waning Crescent
Oct 23
New
Oct 30
First Quarter
Nov 6
Full
Nov 14
Last Quarter

Today's Extremes

State Highs State Lows

Community

WunderPhotos

Upload Photos

1,764,311 photos uploaded!

WunderBlogs® & News

Nearby

Air Quality

  Air Quality AQ Index Pollutant
Yesterday Good
OZONE
Yesterday Good
PM2.5
Current Moderate
PM2.5
Current Good
OZONE
Thursday Good
PM2.5
Friday Good
PM2.5
Saturday Good
PM2.5
Sunday Good
PM2.5
Monday Good
PM2.5

Snow Depth

Station Depth Elevation
Blue Lakes 0 in 8000 ft
Forestdale Creek 0 in 8029 ft
Echo Peak 0 in 7800 ft
Leavitt Lake 1 in 9400 ft
Burnside Lake 0 in 8139 ft

Earthquake Activity

City Distance Mag. Time & Date
No recent earthquake activity has been reported nearby.
Minimum magnitude displayed is 2.5.

Coastal Water Temperatures

Place Temperature
San Francisco, CA 63.0 °F
Richmond, CA 64.0 °F
Port Chicago, CA 66.0 °F

Nearby Weather Stations